Terminal Aerodrome Forecast
Issued by NWS Memphis, TN

Home | Current Version | Previous Version | Text Only | Print | Product List | Glossary On
Versions: 1 2 3 4 5 6 7 8 9 10 11 12 13 14 15 16 17 18 19 20 21 22 23 24
088
FTUS44 KMEG 121730
TAFMEM
TAF
KMEM 121730Z 1218/1324 34012G22KT P6SM FEW050
     FM122200 33008KT P6SM SKC
     FM130100 VRB03KT P6SM SKC
     FM131400 21010KT P6SM SKC
     FM131800 22015G25KT P6SM FEW150 SCT250=

USA.gov is the U.S. government's official web portal to all federal, state and local government web resources and services.